sensor_id;sensor_type;location;lat;lon;timestamp;P1;durP1;ratioP1;P2;durP2;ratioP2
5345;SDS011;2695;49.444;11.054;2023-03-12T00:00:25;14.20;;;8.47;;
5345;SDS011;2695;49.444;11.054;2023-03-12T00:02:53;11.13;;;7.43;;
5345;SDS011;2695;49.444;11.054;2023-03-12T00:05:22;13.00;;;8.10;;
5345;SDS011;2695;49.444;11.054;2023-03-12T00:07:51;17.80;;;9.20;;
5345;SDS011;2695;49.444;11.054;2023-03-12T00:10:19;13.00;;;7.57;;
5345;SDS011;2695;49.444;11.054;2023-03-12T00:12:49;14.60;;;8.30;;
5345;SDS011;2695;49.444;11.054;2023-03-12T00:15:17;15.40;;;7.70;;
5345;SDS011;2695;49.444;11.054;2023-03-12T00:17:45;12.43;;;7.20;;
5345;SDS011;2695;49.444;11.054;2023-03-12T00:20:13;9.83;;;6.70;;
5345;SDS011;2695;49.444;11.054;2023-03-12T00:22:42;10.83;;;7.50;;
5345;SDS011;2695;49.444;11.054;2023-03-12T00:25:10;15.27;;;8.33;;
5345;SDS011;2695;49.444;11.054;2023-03-12T00:27:39;11.97;;;7.03;;
5345;SDS011;2695;49.444;11.054;2023-03-12T00:30:10;12.33;;;6.90;;
5345;SDS011;2695;49.444;11.054;2023-03-12T00:32:38;10.43;;;6.93;;
5345;SDS011;2695;49.444;11.054;2023-03-12T00:35:07;9.77;;;7.03;;
5345;SDS011;2695;49.444;11.054;2023-03-12T00:37:35;17.20;;;7.50;;
5345;SDS011;2695;49.444;11.054;2023-03-12T00:40:04;12.93;;;7.17;;
5345;SDS011;2695;49.444;11.054;2023-03-12T00:42:34;10.70;;;7.33;;
5345;SDS011;2695;49.444;11.054;2023-03-12T00:45:02;13.70;;;7.13;;
5345;SDS011;2695;49.444;11.054;2023-03-12T00:47:32;10.13;;;6.13;;
5345;SDS011;2695;49.444;11.054;2023-03-12T00:50:00;10.33;;;6.00;;
5345;SDS011;2695;49.444;11.054;2023-03-12T00:52:28;23.00;;;8.90;;
5345;SDS011;2695;49.444;11.054;2023-03-12T00:54:55;11.53;;;6.83;;
5345;SDS011;2695;49.444;11.054;2023-03-12T00:57:24;11.03;;;6.40;;
5345;SDS011;2695;49.444;11.054;2023-03-12T00:59:52;11.90;;;7.70;;
5345;SDS011;2695;49.444;11.054;2023-03-12T01:02:20;11.37;;;6.87;;
5345;SDS011;2695;49.444;11.054;2023-03-12T01:04:49;9.33;;;6.67;;
5345;SDS011;2695;49.444;11.054;2023-03-12T01:07:17;11.37;;;7.23;;
5345;SDS011;2695;49.444;11.054;2023-03-12T01:09:45;9.73;;;5.80;;
5345;SDS011;2695;49.444;11.054;2023-03-12T01:12:13;9.03;;;6.10;;
5345;SDS011;2695;49.444;11.054;2023-03-12T01:14:41;12.30;;;6.77;;
5345;SDS011;2695;49.444;11.054;2023-03-12T01:17:09;12.67;;;7.30;;
5345;SDS011;2695;49.444;11.054;2023-03-12T01:19:37;10.70;;;6.23;;
5345;SDS011;2695;49.444;11.054;2023-03-12T01:22:06;8.43;;;5.77;;
5345;SDS011;2695;49.444;11.054;2023-03-12T01:24:34;12.37;;;7.13;;
5345;SDS011;2695;49.444;11.054;2023-03-12T01:27:03;12.07;;;6.20;;
5345;SDS011;2695;49.444;11.054;2023-03-12T01:29:31;10.27;;;6.40;;
5345;SDS011;2695;49.444;11.054;2023-03-12T01:31:59;7.27;;;6.10;;
5345;SDS011;2695;49.444;11.054;2023-03-12T01:34:27;6.93;;;5.40;;
5345;SDS011;2695;49.444;11.054;2023-03-12T01:36:56;10.47;;;6.23;;
5345;SDS011;2695;49.444;11.054;2023-03-12T01:39:25;17.03;;;6.27;;
5345;SDS011;2695;49.444;11.054;2023-03-12T01:41:53;8.70;;;5.50;;
5345;SDS011;2695;49.444;11.054;2023-03-12T01:44:21;10.70;;;5.87;;
5345;SDS011;2695;49.444;11.054;2023-03-12T01:46:49;10.30;;;5.83;;
5345;SDS011;2695;49.444;11.054;2023-03-12T01:49:18;10.50;;;6.00;;
5345;SDS011;2695;49.444;11.054;2023-03-12T01:51:51;8.30;;;5.10;;
5345;SDS011;2695;49.444;11.054;2023-03-12T01:54:26;8.60;;;5.43;;
5345;SDS011;2695;49.444;11.054;2023-03-12T01:56:58;6.97;;;5.63;;
5345;SDS011;2695;49.444;11.054;2023-03-12T01:59:29;8.10;;;5.03;;
5345;SDS011;2695;49.444;11.054;2023-03-12T02:02:00;10.77;;;6.63;;
5345;SDS011;2695;49.444;11.054;2023-03-12T02:04:30;9.60;;;5.43;;
5345;SDS011;2695;49.444;11.054;2023-03-12T02:07:01;7.40;;;5.33;;
5345;SDS011;2695;49.444;11.054;2023-03-12T02:09:33;10.10;;;4.90;;
5345;SDS011;2695;49.444;11.054;2023-03-12T02:12:04;8.33;;;5.30;;
5345;SDS011;2695;49.444;11.054;2023-03-12T02:14:33;10.80;;;5.30;;
5345;SDS011;2695;49.444;11.054;2023-03-12T02:17:02;9.40;;;5.70;;
5345;SDS011;2695;49.444;11.054;2023-03-12T02:19:33;9.73;;;5.73;;
5345;SDS011;2695;49.444;11.054;2023-03-12T02:22:10;10.43;;;5.37;;
5345;SDS011;2695;49.444;11.054;2023-03-12T02:24:43;12.50;;;5.93;;
5345;SDS011;2695;49.444;11.054;2023-03-12T02:27:15;6.30;;;5.00;;
5345;SDS011;2695;49.444;11.054;2023-03-12T02:29:45;10.20;;;5.87;;
5345;SDS011;2695;49.444;11.054;2023-03-12T02:32:15;6.03;;;4.83;;
5345;SDS011;2695;49.444;11.054;2023-03-12T02:34:47;6.00;;;4.93;;
5345;SDS011;2695;49.444;11.054;2023-03-12T02:37:16;9.80;;;4.37;;
5345;SDS011;2695;49.444;11.054;2023-03-12T02:39:45;10.23;;;5.60;;
5345;SDS011;2695;49.444;11.054;2023-03-12T02:42:21;7.30;;;5.00;;
5345;SDS011;2695;49.444;11.054;2023-03-12T02:44:51;7.90;;;5.27;;
5345;SDS011;2695;49.444;11.054;2023-03-12T02:47:20;7.40;;;5.50;;
5345;SDS011;2695;49.444;11.054;2023-03-12T02:49:48;7.87;;;5.20;;
5345;SDS011;2695;49.444;11.054;2023-03-12T02:52:16;9.37;;;5.40;;
5345;SDS011;2695;49.444;11.054;2023-03-12T02:54:44;8.47;;;5.50;;
5345;SDS011;2695;49.444;11.054;2023-03-12T02:57:12;7.83;;;5.47;;
5345;SDS011;2695;49.444;11.054;2023-03-12T02:59:41;6.97;;;4.70;;
5345;SDS011;2695;49.444;11.054;2023-03-12T03:02:09;8.27;;;4.57;;
5345;SDS011;2695;49.444;11.054;2023-03-12T03:04:38;7.40;;;4.70;;
5345;SDS011;2695;49.444;11.054;2023-03-12T03:07:06;10.97;;;5.17;;
5345;SDS011;2695;49.444;11.054;2023-03-12T03:09:36;13.13;;;5.80;;
5345;SDS011;2695;49.444;11.054;2023-03-12T03:12:04;8.87;;;5.70;;
5345;SDS011;2695;49.444;11.054;2023-03-12T03:14:33;7.77;;;5.57;;
5345;SDS011;2695;49.444;11.054;2023-03-12T03:17:02;8.87;;;5.40;;
5345;SDS011;2695;49.444;11.054;2023-03-12T03:19:30;8.10;;;5.50;;
5345;SDS011;2695;49.444;11.054;2023-03-12T03:21:58;9.70;;;4.83;;
5345;SDS011;2695;49.444;11.054;2023-03-12T03:24:26;12.93;;;5.00;;
5345;SDS011;2695;49.444;11.054;2023-03-12T03:26:54;7.77;;;4.60;;
5345;SDS011;2695;49.444;11.054;2023-03-12T03:29:22;7.90;;;5.37;;
5345;SDS011;2695;49.444;11.054;2023-03-12T03:31:50;8.97;;;5.43;;
5345;SDS011;2695;49.444;11.054;2023-03-12T03:34:19;6.40;;;4.77;;
5345;SDS011;2695;49.444;11.054;2023-03-12T03:36:47;12.73;;;5.37;;
5345;SDS011;2695;49.444;11.054;2023-03-12T03:39:15;7.37;;;4.63;;
5345;SDS011;2695;49.444;11.054;2023-03-12T03:41:43;11.40;;;5.03;;
5345;SDS011;2695;49.444;11.054;2023-03-12T03:44:12;8.00;;;5.43;;
5345;SDS011;2695;49.444;11.054;2023-03-12T03:46:40;9.80;;;4.97;;
5345;SDS011;2695;49.444;11.054;2023-03-12T03:49:08;8.33;;;5.17;;
5345;SDS011;2695;49.444;11.054;2023-03-12T03:51:38;13.80;;;5.20;;
5345;SDS011;2695;49.444;11.054;2023-03-12T03:54:07;6.73;;;4.37;;
5345;SDS011;2695;49.444;11.054;2023-03-12T03:56:35;10.53;;;5.73;;
5345;SDS011;2695;49.444;11.054;2023-03-12T03:59:03;7.80;;;5.00;;
5345;SDS011;2695;49.444;11.054;2023-03-12T04:01:31;8.80;;;4.67;;
5345;SDS011;2695;49.444;11.054;2023-03-12T04:03:59;12.13;;;4.93;;
5345;SDS011;2695;49.444;11.054;2023-03-12T04:06:27;8.83;;;4.90;;
5345;SDS011;2695;49.444;11.054;2023-03-12T04:08:57;6.60;;;4.73;;
5345;SDS011;2695;49.444;11.054;2023-03-12T04:11:25;8.70;;;5.50;;
5345;SDS011;2695;49.444;11.054;2023-03-12T04:13:53;10.20;;;5.53;;
5345;SDS011;2695;49.444;11.054;2023-03-12T04:16:21;6.97;;;4.90;;
5345;SDS011;2695;49.444;11.054;2023-03-12T04:18:50;10.50;;;5.27;;
5345;SDS011;2695;49.444;11.054;2023-03-12T04:21:18;10.13;;;4.80;;
5345;SDS011;2695;49.444;11.054;2023-03-12T04:23:46;12.00;;;5.33;;
5345;SDS011;2695;49.444;11.054;2023-03-12T04:26:15;9.43;;;5.40;;
5345;SDS011;2695;49.444;11.054;2023-03-12T04:28:43;8.20;;;5.00;;
5345;SDS011;2695;49.444;11.054;2023-03-12T04:31:11;7.00;;;4.60;;
5345;SDS011;2695;49.444;11.054;2023-03-12T04:33:40;7.27;;;4.17;;
5345;SDS011;2695;49.444;11.054;2023-03-12T04:36:07;8.77;;;4.77;;
5345;SDS011;2695;49.444;11.054;2023-03-12T04:38:36;6.10;;;4.13;;
5345;SDS011;2695;49.444;11.054;2023-03-12T04:41:05;5.30;;;4.00;;
5345;SDS011;2695;49.444;11.054;2023-03-12T04:43:36;8.17;;;4.73;;
5345;SDS011;2695;49.444;11.054;2023-03-12T04:46:04;8.00;;;4.80;;
5345;SDS011;2695;49.444;11.054;2023-03-12T04:48:33;5.60;;;3.97;;
5345;SDS011;2695;49.444;11.054;2023-03-12T04:51:03;7.77;;;4.00;;
5345;SDS011;2695;49.444;11.054;2023-03-12T04:53:31;10.03;;;5.33;;
5345;SDS011;2695;49.444;11.054;2023-03-12T04:56:00;8.10;;;4.70;;
5345;SDS011;2695;49.444;11.054;2023-03-12T04:58:28;6.20;;;3.93;;
5345;SDS011;2695;49.444;11.054;2023-03-12T05:00:57;9.10;;;3.83;;
5345;SDS011;2695;49.444;11.054;2023-03-12T05:03:25;8.97;;;4.13;;
5345;SDS011;2695;49.444;11.054;2023-03-12T05:05:54;6.67;;;4.13;;
5345;SDS011;2695;49.444;11.054;2023-03-12T05:08:22;10.40;;;4.53;;
5345;SDS011;2695;49.444;11.054;2023-03-12T05:10:50;11.30;;;4.10;;
5345;SDS011;2695;49.444;11.054;2023-03-12T05:13:19;7.60;;;4.77;;
5345;SDS011;2695;49.444;11.054;2023-03-12T05:15:48;7.60;;;4.87;;
5345;SDS011;2695;49.444;11.054;2023-03-12T05:18:19;6.37;;;4.30;;
5345;SDS011;2695;49.444;11.054;2023-03-12T05:20:56;6.50;;;4.60;;
5345;SDS011;2695;49.444;11.054;2023-03-12T05:23:25;8.50;;;4.67;;
5345;SDS011;2695;49.444;11.054;2023-03-12T05:25:53;8.60;;;5.00;;
5345;SDS011;2695;49.444;11.054;2023-03-12T05:28:22;7.63;;;4.20;;
5345;SDS011;2695;49.444;11.054;2023-03-12T05:30:53;9.60;;;4.63;;
5345;SDS011;2695;49.444;11.054;2023-03-12T05:33:23;5.93;;;4.10;;
5345;SDS011;2695;49.444;11.054;2023-03-12T05:35:52;5.07;;;4.20;;
5345;SDS011;2695;49.444;11.054;2023-03-12T05:38:21;6.20;;;4.20;;
5345;SDS011;2695;49.444;11.054;2023-03-12T05:40:52;6.50;;;4.27;;
5345;SDS011;2695;49.444;11.054;2023-03-12T05:43:21;10.20;;;4.70;;
5345;SDS011;2695;49.444;11.054;2023-03-12T05:45:49;5.97;;;3.97;;
5345;SDS011;2695;49.444;11.054;2023-03-12T05:48:19;11.00;;;4.30;;
5345;SDS011;2695;49.444;11.054;2023-03-12T05:50:49;5.97;;;4.33;;
5345;SDS011;2695;49.444;11.054;2023-03-12T05:53:17;5.90;;;3.60;;
5345;SDS011;2695;49.444;11.054;2023-03-12T05:55:45;6.47;;;3.83;;
5345;SDS011;2695;49.444;11.054;2023-03-12T05:58:13;8.43;;;4.27;;
5345;SDS011;2695;49.444;11.054;2023-03-12T06:00:41;4.07;;;3.00;;
5345;SDS011;2695;49.444;11.054;2023-03-12T06:03:10;7.40;;;3.70;;
5345;SDS011;2695;49.444;11.054;2023-03-12T06:05:39;7.07;;;4.50;;
5345;SDS011;2695;49.444;11.054;2023-03-12T06:08:09;5.27;;;3.87;;
5345;SDS011;2695;49.444;11.054;2023-03-12T06:10:37;5.67;;;3.93;;
5345;SDS011;2695;49.444;11.054;2023-03-12T06:13:05;6.57;;;4.80;;
5345;SDS011;2695;49.444;11.054;2023-03-12T06:15:34;9.33;;;3.93;;
5345;SDS011;2695;49.444;11.054;2023-03-12T06:18:02;5.23;;;3.60;;
5345;SDS011;2695;49.444;11.054;2023-03-12T06:20:30;4.63;;;2.97;;
5345;SDS011;2695;49.444;11.054;2023-03-12T06:22:58;6.50;;;4.30;;
5345;SDS011;2695;49.444;11.054;2023-03-12T06:25:27;6.40;;;3.90;;
5345;SDS011;2695;49.444;11.054;2023-03-12T06:27:55;4.70;;;3.60;;
5345;SDS011;2695;49.444;11.054;2023-03-12T06:30:23;7.57;;;3.80;;
5345;SDS011;2695;49.444;11.054;2023-03-12T06:32:52;5.87;;;3.90;;
5345;SDS011;2695;49.444;11.054;2023-03-12T06:35:20;6.57;;;4.00;;
5345;SDS011;2695;49.444;11.054;2023-03-12T06:37:48;4.90;;;3.40;;
5345;SDS011;2695;49.444;11.054;2023-03-12T06:40:16;10.47;;;4.20;;
5345;SDS011;2695;49.444;11.054;2023-03-12T06:42:46;3.80;;;3.00;;
5345;SDS011;2695;49.444;11.054;2023-03-12T06:45:14;5.20;;;3.73;;
5345;SDS011;2695;49.444;11.054;2023-03-12T06:47:42;6.63;;;3.80;;
5345;SDS011;2695;49.444;11.054;2023-03-12T06:50:10;5.17;;;3.70;;
5345;SDS011;2695;49.444;11.054;2023-03-12T06:52:38;4.83;;;3.30;;
5345;SDS011;2695;49.444;11.054;2023-03-12T06:55:07;7.20;;;3.20;;
5345;SDS011;2695;49.444;11.054;2023-03-12T06:57:35;6.00;;;3.57;;
5345;SDS011;2695;49.444;11.054;2023-03-12T07:00:05;6.53;;;3.13;;
5345;SDS011;2695;49.444;11.054;2023-03-12T07:02:34;4.20;;;2.80;;
5345;SDS011;2695;49.444;11.054;2023-03-12T07:05:02;4.63;;;2.80;;
5345;SDS011;2695;49.444;11.054;2023-03-12T07:07:30;3.97;;;3.10;;
5345;SDS011;2695;49.444;11.054;2023-03-12T07:09:58;6.43;;;3.33;;
5345;SDS011;2695;49.444;11.054;2023-03-12T07:12:26;3.37;;;2.70;;
5345;SDS011;2695;49.444;11.054;2023-03-12T07:14:54;5.80;;;3.03;;
5345;SDS011;2695;49.444;11.054;2023-03-12T07:17:23;4.50;;;3.13;;
5345;SDS011;2695;49.444;11.054;2023-03-12T07:19:52;9.10;;;3.30;;
5345;SDS011;2695;49.444;11.054;2023-03-12T07:22:20;5.80;;;2.70;;
5345;SDS011;2695;49.444;11.054;2023-03-12T07:24:48;4.97;;;2.87;;
5345;SDS011;2695;49.444;11.054;2023-03-12T07:27:16;14.83;;;3.07;;
5345;SDS011;2695;49.444;11.054;2023-03-12T07:29:44;7.77;;;3.40;;
5345;SDS011;2695;49.444;11.054;2023-03-12T07:32:12;5.27;;;3.00;;
5345;SDS011;2695;49.444;11.054;2023-03-12T07:34:42;7.43;;;3.20;;
5345;SDS011;2695;49.444;11.054;2023-03-12T07:37:10;5.30;;;3.20;;
5345;SDS011;2695;49.444;11.054;2023-03-12T07:39:38;4.80;;;2.40;;
5345;SDS011;2695;49.444;11.054;2023-03-12T07:42:07;4.53;;;2.87;;
5345;SDS011;2695;49.444;11.054;2023-03-12T07:44:35;3.00;;;2.20;;
5345;SDS011;2695;49.444;11.054;2023-03-12T07:47:04;6.47;;;2.97;;
5345;SDS011;2695;49.444;11.054;2023-03-12T07:49:49;5.63;;;3.20;;
5345;SDS011;2695;49.444;11.054;2023-03-12T07:52:19;4.90;;;2.60;;
5345;SDS011;2695;49.444;11.054;2023-03-12T07:54:49;5.60;;;3.10;;
5345;SDS011;2695;49.444;11.054;2023-03-12T07:57:19;6.47;;;3.43;;
5345;SDS011;2695;49.444;11.054;2023-03-12T07:59:48;3.60;;;2.50;;
5345;SDS011;2695;49.444;11.054;2023-03-12T08:02:16;4.40;;;3.07;;
5345;SDS011;2695;49.444;11.054;2023-03-12T08:04:45;3.17;;;2.80;;
5345;SDS011;2695;49.444;11.054;2023-03-12T08:07:15;3.07;;;2.50;;
5345;SDS011;2695;49.444;11.054;2023-03-12T08:09:43;6.33;;;3.37;;
5345;SDS011;2695;49.444;11.054;2023-03-12T08:12:14;7.40;;;3.10;;
5345;SDS011;2695;49.444;11.054;2023-03-12T08:14:43;3.60;;;3.03;;
5345;SDS011;2695;49.444;11.054;2023-03-12T08:17:12;7.67;;;3.00;;
5345;SDS011;2695;49.444;11.054;2023-03-12T08:22:27;3.83;;;2.83;;
5345;SDS011;2695;49.444;11.054;2023-03-12T08:24:55;6.13;;;3.33;;
5345;SDS011;2695;49.444;11.054;2023-03-12T08:27:23;5.27;;;3.10;;
5345;SDS011;2695;49.444;11.054;2023-03-12T08:29:51;5.00;;;3.40;;
5345;SDS011;2695;49.444;11.054;2023-03-12T08:32:19;7.90;;;3.33;;
5345;SDS011;2695;49.444;11.054;2023-03-12T08:34:47;3.50;;;2.60;;
5345;SDS011;2695;49.444;11.054;2023-03-12T08:37:15;5.50;;;3.07;;
5345;SDS011;2695;49.444;11.054;2023-03-12T08:39:45;4.23;;;2.67;;
5345;SDS011;2695;49.444;11.054;2023-03-12T08:42:15;3.00;;;2.70;;
5345;SDS011;2695;49.444;11.054;2023-03-12T08:44:44;3.47;;;2.70;;
5345;SDS011;2695;49.444;11.054;2023-03-12T08:47:12;5.27;;;2.60;;
5345;SDS011;2695;49.444;11.054;2023-03-12T08:49:40;5.40;;;3.40;;
5345;SDS011;2695;49.444;11.054;2023-03-12T08:52:08;5.97;;;2.70;;
5345;SDS011;2695;49.444;11.054;2023-03-12T08:54:36;7.53;;;3.13;;
5345;SDS011;2695;49.444;11.054;2023-03-12T08:57:05;4.70;;;3.30;;
5345;SDS011;2695;49.444;11.054;2023-03-12T08:59:34;4.60;;;2.77;;
5345;SDS011;2695;49.444;11.054;2023-03-12T09:02:02;4.73;;;3.10;;
5345;SDS011;2695;49.444;11.054;2023-03-12T09:04:31;3.10;;;2.80;;
5345;SDS011;2695;49.444;11.054;2023-03-12T09:07:08;6.70;;;3.87;;
5345;SDS011;2695;49.444;11.054;2023-03-12T09:09:42;3.27;;;2.50;;
5345;SDS011;2695;49.444;11.054;2023-03-12T09:12:21;3.40;;;2.47;;
5345;SDS011;2695;49.444;11.054;2023-03-12T09:15:01;5.60;;;3.17;;
5345;SDS011;2695;49.444;11.054;2023-03-12T09:17:34;4.60;;;3.07;;
5345;SDS011;2695;49.444;11.054;2023-03-12T09:20:03;5.77;;;3.03;;
5345;SDS011;2695;49.444;11.054;2023-03-12T09:22:33;6.70;;;3.20;;
5345;SDS011;2695;49.444;11.054;2023-03-12T09:25:02;3.70;;;2.57;;
5345;SDS011;2695;49.444;11.054;2023-03-12T09:27:35;4.87;;;2.57;;
5345;SDS011;2695;49.444;11.054;2023-03-12T09:30:04;2.60;;;1.90;;
5345;SDS011;2695;49.444;11.054;2023-03-12T09:32:34;4.63;;;2.40;;
5345;SDS011;2695;49.444;11.054;2023-03-12T09:35:03;4.67;;;3.00;;
5345;SDS011;2695;49.444;11.054;2023-03-12T09:37:32;2.83;;;2.53;;
5345;SDS011;2695;49.444;11.054;2023-03-12T09:40:00;4.67;;;2.50;;
5345;SDS011;2695;49.444;11.054;2023-03-12T09:42:35;3.57;;;2.30;;
5345;SDS011;2695;49.444;11.054;2023-03-12T09:45:13;7.60;;;2.70;;
5345;SDS011;2695;49.444;11.054;2023-03-12T09:47:46;5.40;;;2.63;;
5345;SDS011;2695;49.444;11.054;2023-03-12T09:50:19;5.60;;;2.47;;
5345;SDS011;2695;49.444;11.054;2023-03-12T09:52:52;2.93;;;2.40;;
5345;SDS011;2695;49.444;11.054;2023-03-12T09:55:26;4.67;;;2.90;;
5345;SDS011;2695;49.444;11.054;2023-03-12T09:57:59;5.63;;;3.00;;
5345;SDS011;2695;49.444;11.054;2023-03-12T10:00:28;6.13;;;2.80;;
5345;SDS011;2695;49.444;11.054;2023-03-12T10:03:16;4.30;;;2.50;;
5345;SDS011;2695;49.444;11.054;2023-03-12T10:05:57;4.03;;;1.90;;
5345;SDS011;2695;49.444;11.054;2023-03-12T10:08:35;6.33;;;2.77;;
5345;SDS011;2695;49.444;11.054;2023-03-12T10:11:15;5.60;;;2.90;;
5345;SDS011;2695;49.444;11.054;2023-03-12T10:14:04;8.30;;;4.13;;
5345;SDS011;2695;49.444;11.054;2023-03-12T10:16:53;5.87;;;2.60;;
5345;SDS011;2695;49.444;11.054;2023-03-12T10:19:30;5.40;;;2.83;;
5345;SDS011;2695;49.444;11.054;2023-03-12T10:22:11;4.17;;;3.00;;
5345;SDS011;2695;49.444;11.054;2023-03-12T10:24:49;11.23;;;2.97;;
5345;SDS011;2695;49.444;11.054;2023-03-12T10:27:24;3.60;;;2.63;;
5345;SDS011;2695;49.444;11.054;2023-03-12T10:29:57;3.83;;;2.70;;
5345;SDS011;2695;49.444;11.054;2023-03-12T10:32:29;6.50;;;3.07;;
5345;SDS011;2695;49.444;11.054;2023-03-12T10:35:13;5.37;;;2.53;;
5345;SDS011;2695;49.444;11.054;2023-03-12T10:37:47;4.40;;;2.60;;
5345;SDS011;2695;49.444;11.054;2023-03-12T10:40:17;4.53;;;2.57;;
5345;SDS011;2695;49.444;11.054;2023-03-12T10:42:48;7.03;;;3.30;;
5345;SDS011;2695;49.444;11.054;2023-03-12T10:45:20;6.87;;;3.40;;
5345;SDS011;2695;49.444;11.054;2023-03-12T10:47:58;4.80;;;2.40;;
5345;SDS011;2695;49.444;11.054;2023-03-12T10:50:29;3.37;;;2.57;;
5345;SDS011;2695;49.444;11.054;2023-03-12T10:53:11;6.87;;;3.10;;
5345;SDS011;2695;49.444;11.054;2023-03-12T10:55:58;11.27;;;3.30;;
5345;SDS011;2695;49.444;11.054;2023-03-12T10:58:38;3.90;;;2.60;;
5345;SDS011;2695;49.444;11.054;2023-03-12T11:01:14;4.07;;;2.60;;
5345;SDS011;2695;49.444;11.054;2023-03-12T11:03:46;3.90;;;3.17;;
5345;SDS011;2695;49.444;11.054;2023-03-12T11:06:19;7.23;;;4.30;;
5345;SDS011;2695;49.444;11.054;2023-03-12T11:09:01;5.60;;;3.00;;
5345;SDS011;2695;49.444;11.054;2023-03-12T11:11:47;8.17;;;3.37;;
5345;SDS011;2695;49.444;11.054;2023-03-12T11:14:17;8.20;;;3.27;;
5345;SDS011;2695;49.444;11.054;2023-03-12T11:16:48;3.13;;;2.60;;
5345;SDS011;2695;49.444;11.054;2023-03-12T11:19:25;5.60;;;2.80;;
5345;SDS011;2695;49.444;11.054;2023-03-12T11:21:55;4.40;;;2.97;;
5345;SDS011;2695;49.444;11.054;2023-03-12T11:24:24;6.30;;;3.37;;
5345;SDS011;2695;49.444;11.054;2023-03-12T11:26:53;4.97;;;2.57;;
5345;SDS011;2695;49.444;11.054;2023-03-12T11:29:26;7.23;;;3.57;;
5345;SDS011;2695;49.444;11.054;2023-03-12T11:32:00;5.47;;;3.40;;
5345;SDS011;2695;49.444;11.054;2023-03-12T11:34:32;5.80;;;2.73;;
5345;SDS011;2695;49.444;11.054;2023-03-12T11:37:04;4.80;;;2.90;;
5345;SDS011;2695;49.444;11.054;2023-03-12T11:39:41;10.60;;;4.00;;
5345;SDS011;2695;49.444;11.054;2023-03-12T11:42:22;3.57;;;2.87;;
5345;SDS011;2695;49.444;11.054;2023-03-12T11:45:00;5.67;;;2.73;;
5345;SDS011;2695;49.444;11.054;2023-03-12T11:47:42;4.33;;;3.00;;
5345;SDS011;2695;49.444;11.054;2023-03-12T11:50:26;5.23;;;2.87;;
5345;SDS011;2695;49.444;11.054;2023-03-12T11:56:12;8.40;;;3.30;;
5345;SDS011;2695;49.444;11.054;2023-03-12T12:02:03;4.83;;;3.67;;
5345;SDS011;2695;49.444;11.054;2023-03-12T12:04:53;9.03;;;3.63;;
5345;SDS011;2695;49.444;11.054;2023-03-12T12:07:41;8.33;;;3.67;;
5345;SDS011;2695;49.444;11.054;2023-03-12T12:10:21;8.83;;;4.00;;
5345;SDS011;2695;49.444;11.054;2023-03-12T12:12:56;8.33;;;3.13;;
5345;SDS011;2695;49.444;11.054;2023-03-12T12:15:32;7.50;;;4.03;;
5345;SDS011;2695;49.444;11.054;2023-03-12T12:18:11;6.23;;;4.07;;
5345;SDS011;2695;49.444;11.054;2023-03-12T12:20:57;10.30;;;3.90;;
5345;SDS011;2695;49.444;11.054;2023-03-12T12:23:34;6.43;;;4.37;;
5345;SDS011;2695;49.444;11.054;2023-03-12T12:26:12;6.40;;;4.97;;
5345;SDS011;2695;49.444;11.054;2023-03-12T12:28:53;5.83;;;4.43;;
5345;SDS011;2695;49.444;11.054;2023-03-12T12:31:41;7.87;;;4.10;;
5345;SDS011;2695;49.444;11.054;2023-03-12T12:34:26;8.87;;;5.67;;
5345;SDS011;2695;49.444;11.054;2023-03-12T12:37:19;6.93;;;4.47;;
5345;SDS011;2695;49.444;11.054;2023-03-12T12:39:52;7.70;;;5.00;;
5345;SDS011;2695;49.444;11.054;2023-03-12T12:42:27;13.93;;;4.77;;
5345;SDS011;2695;49.444;11.054;2023-03-12T12:44:58;7.93;;;6.03;;
5345;SDS011;2695;49.444;11.054;2023-03-12T12:47:33;7.67;;;5.70;;
5345;SDS011;2695;49.444;11.054;2023-03-12T12:50:10;6.20;;;4.73;;
5345;SDS011;2695;49.444;11.054;2023-03-12T12:52:44;8.67;;;5.03;;
5345;SDS011;2695;49.444;11.054;2023-03-12T12:55:16;8.37;;;6.10;;
5345;SDS011;2695;49.444;11.054;2023-03-12T12:57:50;7.00;;;5.00;;
5345;SDS011;2695;49.444;11.054;2023-03-12T13:00:31;11.03;;;5.97;;
5345;SDS011;2695;49.444;11.054;2023-03-12T13:03:06;9.00;;;4.90;;
5345;SDS011;2695;49.444;11.054;2023-03-12T13:05:43;10.83;;;7.30;;
5345;SDS011;2695;49.444;11.054;2023-03-12T13:08:33;8.77;;;5.33;;
5345;SDS011;2695;49.444;11.054;2023-03-12T13:11:24;10.43;;;6.07;;
5345;SDS011;2695;49.444;11.054;2023-03-12T13:14:11;7.93;;;5.57;;
5345;SDS011;2695;49.444;11.054;2023-03-12T13:16:47;7.60;;;5.80;;
5345;SDS011;2695;49.444;11.054;2023-03-12T13:19:25;6.47;;;5.37;;
5345;SDS011;2695;49.444;11.054;2023-03-12T13:21:57;13.47;;;6.77;;
5345;SDS011;2695;49.444;11.054;2023-03-12T13:24:34;15.20;;;6.40;;
5345;SDS011;2695;49.444;11.054;2023-03-12T13:27:12;9.73;;;6.23;;
5345;SDS011;2695;49.444;11.054;2023-03-12T13:29:46;12.17;;;6.20;;
5345;SDS011;2695;49.444;11.054;2023-03-12T13:32:37;8.97;;;6.27;;
5345;SDS011;2695;49.444;11.054;2023-03-12T13:35:32;9.20;;;6.00;;
5345;SDS011;2695;49.444;11.054;2023-03-12T13:38:04;8.17;;;5.80;;
5345;SDS011;2695;49.444;11.054;2023-03-12T13:40:39;8.57;;;5.70;;
5345;SDS011;2695;49.444;11.054;2023-03-12T13:43:39;8.17;;;6.40;;
5345;SDS011;2695;49.444;11.054;2023-03-12T13:46:33;10.27;;;6.57;;
5345;SDS011;2695;49.444;11.054;2023-03-12T13:49:08;10.63;;;6.20;;
5345;SDS011;2695;49.444;11.054;2023-03-12T13:51:42;11.30;;;6.40;;
5345;SDS011;2695;49.444;11.054;2023-03-12T13:54:14;9.57;;;6.50;;
5345;SDS011;2695;49.444;11.054;2023-03-12T13:56:52;7.43;;;5.50;;
5345;SDS011;2695;49.444;11.054;2023-03-12T13:59:24;11.57;;;6.67;;
5345;SDS011;2695;49.444;11.054;2023-03-12T14:01:55;9.50;;;6.40;;
5345;SDS011;2695;49.444;11.054;2023-03-12T14:04:28;6.67;;;5.50;;
5345;SDS011;2695;49.444;11.054;2023-03-12T14:07:06;9.63;;;5.90;;
5345;SDS011;2695;49.444;11.054;2023-03-12T14:09:50;9.33;;;6.43;;
5345;SDS011;2695;49.444;11.054;2023-03-12T14:12:28;6.57;;;5.13;;
5345;SDS011;2695;49.444;11.054;2023-03-12T14:15:14;8.50;;;5.47;;
5345;SDS011;2695;49.444;11.054;2023-03-12T14:17:51;8.17;;;5.10;;
5345;SDS011;2695;49.444;11.054;2023-03-12T14:20:23;7.80;;;5.10;;
5345;SDS011;2695;49.444;11.054;2023-03-12T14:22:52;8.30;;;5.87;;
5345;SDS011;2695;49.444;11.054;2023-03-12T14:25:28;7.33;;;5.67;;
5345;SDS011;2695;49.444;11.054;2023-03-12T14:28:01;7.07;;;5.00;;
5345;SDS011;2695;49.444;11.054;2023-03-12T14:30:35;9.00;;;5.07;;
5345;SDS011;2695;49.444;11.054;2023-03-12T14:33:09;6.80;;;4.37;;
5345;SDS011;2695;49.444;11.054;2023-03-12T14:35:42;7.97;;;4.83;;
5345;SDS011;2695;49.444;11.054;2023-03-12T14:38:14;9.37;;;5.30;;
5345;SDS011;2695;49.444;11.054;2023-03-12T14:40:44;6.47;;;4.27;;
5345;SDS011;2695;49.444;11.054;2023-03-12T14:43:20;7.60;;;3.90;;
5345;SDS011;2695;49.444;11.054;2023-03-12T14:45:53;4.83;;;4.10;;
5345;SDS011;2695;49.444;11.054;2023-03-12T14:48:22;7.17;;;3.80;;
5345;SDS011;2695;49.444;11.054;2023-03-12T14:50:54;7.30;;;4.10;;
5345;SDS011;2695;49.444;11.054;2023-03-12T14:53:24;5.80;;;3.87;;
5345;SDS011;2695;49.444;11.054;2023-03-12T14:56:02;5.50;;;4.30;;
5345;SDS011;2695;49.444;11.054;2023-03-12T14:58:42;6.10;;;4.10;;
5345;SDS011;2695;49.444;11.054;2023-03-12T15:01:13;7.80;;;3.37;;
5345;SDS011;2695;49.444;11.054;2023-03-12T15:03:45;4.23;;;3.50;;
5345;SDS011;2695;49.444;11.054;2023-03-12T15:06:16;7.20;;;3.90;;
5345;SDS011;2695;49.444;11.054;2023-03-12T15:08:48;3.77;;;3.03;;
5345;SDS011;2695;49.444;11.054;2023-03-12T15:11:19;4.53;;;3.63;;
5345;SDS011;2695;49.444;11.054;2023-03-12T15:13:50;6.97;;;3.60;;
5345;SDS011;2695;49.444;11.054;2023-03-12T15:16:19;5.33;;;3.60;;
5345;SDS011;2695;49.444;11.054;2023-03-12T15:18:48;5.87;;;3.83;;
5345;SDS011;2695;49.444;11.054;2023-03-12T15:21:18;8.03;;;3.73;;
5345;SDS011;2695;49.444;11.054;2023-03-12T15:23:47;5.67;;;3.27;;
5345;SDS011;2695;49.444;11.054;2023-03-12T15:26:25;7.67;;;3.27;;
5345;SDS011;2695;49.444;11.054;2023-03-12T15:28:57;4.00;;;3.60;;
5345;SDS011;2695;49.444;11.054;2023-03-12T15:31:26;2.97;;;2.67;;
5345;SDS011;2695;49.444;11.054;2023-03-12T15:34:09;4.60;;;2.93;;